Bighorn, MT (59010)

1:53 AM MDT on September 23, 2014 (GMT -0600)
Forsyth Golf Course | Change Station
CLOSE
Current Station
Personal Weather Station
Location: Forsyth, MT
Elevation: 2552 ft
Nearby Weather Stations

Elev 2552 ft 46.25 °N, 106.72 °W | Updated 5 seconds ago

Clear
Clear
54.5 °F
Feels Like 54.5 °F
N
0.7
Wind Variable Wind from SE
Gusts 3.1 mph

Today
High -- | Low -- °F
--% Chance of Precip.
Yesterday
High -- | Low -- °F
Precip. -- in
6:56 AM 7:04 PM
Waning Crescent, 1% visible
Pressure 29.82 in
Visibility 10.0 miles
Clouds Clear
Dew Point 53 °F
Humidity 96%
Rainfall 0.00 in
Snow Depth Not available.
UV 0 out of 12
Pollen 4.50 out of 12
Air Quality Not available.
Flu Activity Not available.
METAR KMLS 230653Z AUTO 30004KT 10SM CLR 12/08 A2986 RMK AO2 SLP098 T01220083 402890122

More Conditions Fewer Conditions

Pressure 29.82 in
Visibility 10.0 miles
Clouds Clear
Dew Point 53 °F
Humidity 96%
Rainfall 0.00 in
Snow Depth Not available.
UV 0 out of 12
Pollen 4.50 out of 12
Air Quality Not available.
Flu Activity Not available.
METAR KMLS 230653Z AUTO 30004KT 10SM CLR 12/08 A2986 RMK AO2 SLP098 T01220083 402890122

More Conditions Fewer Conditions

10-Day Weather Forecast

Almanac

Astronomy

Sep. 23, 2014 Rise Set
Actual Time 6:56 AM MDT 7:04 PM MDT
Civil Twilight 6:27 AM MDT 7:33 PM MDT
Nautical Twilight 5:51 AM MDT 8:08 PM MDT
Astronomical Twilight 5:15 AM MDT 8:44 PM MDT
Moon 6:23 AM MDT 6:43 PM MDT
Length of Visible Light 13h 06m
Length of Day
12h 07m
Tomorrow will be 3m 14s shorter.
Waning Crescent, 1% of the Moon is Illuminated
Today
Waning Crescent
Sep 24
New
Oct 1
First Quarter
Oct 8
Full
Oct 15
Last Quarter

Today's Extremes

State Highs State Lows

Community

WunderPhotos

Upload Photos

1,755,608 photos uploaded!

Nearby

Snow Depth

Station Depth Elevation
Northeast Entrance 0 in 7350 ft
Emery Creek 0 in 4350 ft
Lakeview Ridge 0 in 7400 ft
Pickfoot Creek 0 in 6650 ft
Stringer Creek 0 in 6550 ft

Earthquake Activity

City Distance Mag. Time & Date
No recent earthquake activity has been reported nearby.
Minimum magnitude displayed is 2.5.

Coastal Water Temperatures

Place Temperature
No Stations Reporting

Nearby Weather Stations